sensor_id;sensor_type;location;lat;lon;timestamp;pressure;altitude;pressure_sealevel;temperature;humidity
30343;BME280;17145;49.902;8.680;'2023-05-20 01:58:59';100420;;;14;39
30343;BME280;17145;49.902;8.680;'2023-05-20 02:04:18';100410;;;14;39
30343;BME280;17145;49.902;8.680;'2023-05-20 02:06:50';100410;;;14;40
30343;BME280;17145;49.902;8.680;'2023-05-20 02:09:37';100420;;;14;40
30343;BME280;17145;49.902;8.680;'2023-05-20 02:12:17';100420;;;14;40
30343;BME280;17145;49.902;8.680;'2023-05-20 02:14:59';100410;;;14;40
30343;BME280;17145;49.902;8.680;'2023-05-20 02:17:38';100410;;;14;40
30343;BME280;17145;49.902;8.680;'2023-05-20 02:20:15';100410;;;14;40
30343;BME280;17145;49.902;8.680;'2023-05-20 02:22:54';100410;;;14;40
30343;BME280;17145;49.902;8.680;'2023-05-20 02:25:23';100410;;;14;40
30343;BME280;17145;49.902;8.680;'2023-05-20 02:28:11';100410;;;14;40
30343;BME280;17145;49.902;8.680;'2023-05-20 02:31:05';100410;;;14;40
30343;BME280;17145;49.902;8.680;'2023-05-20 02:33:50';100410;;;13;41
30343;BME280;17145;49.902;8.680;'2023-05-20 02:36:59';100400;;;13;41
30343;BME280;17145;49.902;8.680;'2023-05-20 02:42:44';100400;;;14;41
30343;BME280;17145;49.902;8.680;'2023-05-20 02:45:40';100400;;;14;41
30343;BME280;17145;49.902;8.680;'2023-05-20 02:54:01';100400;;;13;41
30343;BME280;17145;49.902;8.680;'2023-05-20 02:56:37';100400;;;13;41
30343;BME280;17145;49.902;8.680;'2023-05-20 02:59:23';100400;;;13;41
30343;BME280;17145;49.902;8.680;'2023-05-20 03:07:34';100390;;;14;42
30343;BME280;17145;49.902;8.680;'2023-05-20 03:19:12';100380;;;14;42
30343;BME280;17145;49.902;8.680;'2023-05-20 03:30:29';100380;;;13;43
30343;BME280;17145;49.902;8.680;'2023-05-20 03:33:00';100380;;;13;43
30343;BME280;17145;49.902;8.680;'2023-05-20 03:35:29';100370;;;13;43
30343;BME280;17145;49.902;8.680;'2023-05-20 03:38:14';100370;;;13;43
30343;BME280;17145;49.902;8.680;'2023-05-20 03:40:42';100370;;;13;43
30343;BME280;17145;49.902;8.680;'2023-05-20 03:43:10';100370;;;13;43
30343;BME280;17145;49.902;8.680;'2023-05-20 03:45:40';100370;;;13;43
30343;BME280;17145;49.902;8.680;'2023-05-20 03:48:10';100360;;;13;43
30343;BME280;17145;49.902;8.680;'2023-05-20 03:50:38';100360;;;13;43
30343;BME280;17145;49.902;8.680;'2023-05-20 03:53:05';100360;;;13;43
30343;BME280;17145;49.902;8.680;'2023-05-20 03:55:33';100360;;;13;43
30343;BME280;17145;49.902;8.680;'2023-05-20 03:58:00';100350;;;13;44
30343;BME280;17145;49.902;8.680;'2023-05-20 04:00:28';100350;;;13;44
30343;BME280;17145;49.902;8.680;'2023-05-20 04:02:55';100350;;;13;44
30343;BME280;17145;49.902;8.680;'2023-05-20 04:05:22';100350;;;13;44
30343;BME280;17145;49.902;8.680;'2023-05-20 04:07:50';100350;;;13;44
30343;BME280;17145;49.902;8.680;'2023-05-20 04:10:17';100350;;;13;44
30343;BME280;17145;49.902;8.680;'2023-05-20 04:12:45';100350;;;13;44
30343;BME280;17145;49.902;8.680;'2023-05-20 04:15:12';100350;;;13;44
30343;BME280;17145;49.902;8.680;'2023-05-20 04:17:40';100350;;;13;44
30343;BME280;17145;49.902;8.680;'2023-05-20 04:20:08';100350;;;13;44
30343;BME280;17145;49.902;8.680;'2023-05-20 04:22:35';100350;;;13;44
30343;BME280;17145;49.902;8.680;'2023-05-20 04:25:03';100340;;;13;45
30343;BME280;17145;49.902;8.680;'2023-05-20 04:27:30';100340;;;13;44
30343;BME280;17145;49.902;8.680;'2023-05-20 04:29:58';100340;;;13;44
30343;BME280;17145;49.902;8.680;'2023-05-20 04:32:26';100350;;;13;45
30343;BME280;17145;49.902;8.680;'2023-05-20 04:34:53';100350;;;12;45
30343;BME280;17145;49.902;8.680;'2023-05-20 04:37:20';100350;;;13;45
30343;BME280;17145;49.902;8.680;'2023-05-20 04:39:48';100350;;;13;45
30343;BME280;17145;49.902;8.680;'2023-05-20 04:42:15';100350;;;13;45
30343;BME280;17145;49.902;8.680;'2023-05-20 04:44:42';100340;;;13;45
30343;BME280;17145;49.902;8.680;'2023-05-20 04:47:10';100340;;;13;45
30343;BME280;17145;49.902;8.680;'2023-05-20 04:49:37';100340;;;13;45
30343;BME280;17145;49.902;8.680;'2023-05-20 04:52:05';100340;;;12;45
30343;BME280;17145;49.902;8.680;'2023-05-20 04:54:33';100340;;;13;45
30343;BME280;17145;49.902;8.680;'2023-05-20 04:57:00';100340;;;13;45
30343;BME280;17145;49.902;8.680;'2023-05-20 04:59:27';100330;;;13;45
30343;BME280;17145;49.902;8.680;'2023-05-20 05:01:55';100330;;;12;45
30343;BME280;17145;49.902;8.680;'2023-05-20 05:04:22';100330;;;13;46
30343;BME280;17145;49.902;8.680;'2023-05-20 05:06:50';100330;;;13;45
30343;BME280;17145;49.902;8.680;'2023-05-20 05:09:17';100330;;;13;46
30343;BME280;17145;49.902;8.680;'2023-05-20 05:11:44';100320;;;13;46
30343;BME280;17145;49.902;8.680;'2023-05-20 05:14:12';100320;;;13;46
30343;BME280;17145;49.902;8.680;'2023-05-20 05:16:39';100320;;;13;46
30343;BME280;17145;49.902;8.680;'2023-05-20 05:19:06';100320;;;13;46
30343;BME280;17145;49.902;8.680;'2023-05-20 05:21:34';100320;;;13;46
30343;BME280;17145;49.902;8.680;'2023-05-20 05:24:01';100320;;;13;46
30343;BME280;17145;49.902;8.680;'2023-05-20 05:26:29';100320;;;13;46
30343;BME280;17145;49.902;8.680;'2023-05-20 05:28:56';100320;;;13;46
30343;BME280;17145;49.902;8.680;'2023-05-20 05:31:23';100320;;;13;46
30343;BME280;17145;49.902;8.680;'2023-05-20 05:33:51';100320;;;13;46
30343;BME280;17145;49.902;8.680;'2023-05-20 05:36:19';100320;;;13;46
30343;BME280;17145;49.902;8.680;'2023-05-20 05:38:46';100320;;;12;46
30343;BME280;17145;49.902;8.680;'2023-05-20 05:41:13';100320;;;12;46
30343;BME280;17145;49.902;8.680;'2023-05-20 05:43:41';100320;;;12;46
30343;BME280;17145;49.902;8.680;'2023-05-20 05:46:08';100320;;;13;47
30343;BME280;17145;49.902;8.680;'2023-05-20 05:48:36';100320;;;13;47
30343;BME280;17145;49.902;8.680;'2023-05-20 05:51:03';100320;;;13;46
30343;BME280;17145;49.902;8.680;'2023-05-20 05:53:30';100320;;;13;47
30343;BME280;17145;49.902;8.680;'2023-05-20 05:55:58';100320;;;13;47
30343;BME280;17145;49.902;8.680;'2023-05-20 05:58:26';100320;;;13;47
30343;BME280;17145;49.902;8.680;'2023-05-20 06:00:53';100320;;;13;47
30343;BME280;17145;49.902;8.680;'2023-05-20 06:03:21';100320;;;13;47
30343;BME280;17145;49.902;8.680;'2023-05-20 06:05:48';100320;;;13;47
30343;BME280;17145;49.902;8.680;'2023-05-20 06:08:16';100330;;;13;47
30343;BME280;17145;49.902;8.680;'2023-05-20 06:10:43';100330;;;13;47
30343;BME280;17145;49.902;8.680;'2023-05-20 06:13:11';100330;;;13;47
30343;BME280;17145;49.902;8.680;'2023-05-20 06:15:38';100330;;;13;47
30343;BME280;17145;49.902;8.680;'2023-05-20 06:18:05';100330;;;13;47
30343;BME280;17145;49.902;8.680;'2023-05-20 06:20:33';100330;;;13;47
30343;BME280;17145;49.902;8.680;'2023-05-20 06:23:00';100320;;;13;47
30343;BME280;17145;49.902;8.680;'2023-05-20 06:25:28';100320;;;13;47
30343;BME280;17145;49.902;8.680;'2023-05-20 06:27:55';100320;;;13;47
30343;BME280;17145;49.902;8.680;'2023-05-20 06:30:22';100320;;;13;47
30343;BME280;17145;49.902;8.680;'2023-05-20 06:32:50';100320;;;13;47
30343;BME280;17145;49.902;8.680;'2023-05-20 06:35:18';100320;;;13;47
30343;BME280;17145;49.902;8.680;'2023-05-20 06:37:45';100320;;;13;47
30343;BME280;17145;49.902;8.680;'2023-05-20 06:40:13';100320;;;13;47
30343;BME280;17145;49.902;8.680;'2023-05-20 06:42:40';100320;;;13;47
30343;BME280;17145;49.902;8.680;'2023-05-20 06:45:08';100320;;;13;47
30343;BME280;17145;49.902;8.680;'2023-05-20 06:47:36';100320;;;13;47
30343;BME280;17145;49.902;8.680;'2023-05-20 06:50:05';100310;;;14;47
30343;BME280;17145;49.902;8.680;'2023-05-20 06:52:32';100310;;;13;47
30343;BME280;17145;49.902;8.680;'2023-05-20 06:54:59';100300;;;13;47
30343;BME280;17145;49.902;8.680;'2023-05-20 06:57:27';100300;;;14;47
30343;BME280;17145;49.902;8.680;'2023-05-20 06:59:54';100290;;;14;47
30343;BME280;17145;49.902;8.680;'2023-05-20 07:02:22';100290;;;14;47
30343;BME280;17145;49.902;8.680;'2023-05-20 07:04:49';100290;;;14;47
30343;BME280;17145;49.902;8.680;'2023-05-20 07:07:16';100290;;;14;47
30343;BME280;17145;49.902;8.680;'2023-05-20 07:09:44';100290;;;14;46
30343;BME280;17145;49.902;8.680;'2023-05-20 07:12:11';100290;;;14;46
30343;BME280;17145;49.902;8.680;'2023-05-20 07:14:39';100280;;;13;46
30343;BME280;17145;49.902;8.680;'2023-05-20 07:17:06';100280;;;14;46
30343;BME280;17145;49.902;8.680;'2023-05-20 07:19:33';100280;;;14;46
30343;BME280;17145;49.902;8.680;'2023-05-20 07:22:01';100280;;;14;46
30343;BME280;17145;49.902;8.680;'2023-05-20 07:24:28';100280;;;14;46
30343;BME280;17145;49.902;8.680;'2023-05-20 07:26:55';100280;;;14;46
30343;BME280;17145;49.902;8.680;'2023-05-20 07:29:23';100280;;;14;46
30343;BME280;17145;49.902;8.680;'2023-05-20 07:31:50';100280;;;14;46
30343;BME280;17145;49.902;8.680;'2023-05-20 07:34:17';100280;;;14;46
30343;BME280;17145;49.902;8.680;'2023-05-20 07:36:45';100280;;;14;46
30343;BME280;17145;49.902;8.680;'2023-05-20 07:39:12';100280;;;14;46
30343;BME280;17145;49.902;8.680;'2023-05-20 07:41:39';100280;;;14;46
30343;BME280;17145;49.902;8.680;'2023-05-20 07:44:07';100280;;;14;46
30343;BME280;17145;49.902;8.680;'2023-05-20 07:46:34';100270;;;14;46
30343;BME280;17145;49.902;8.680;'2023-05-20 07:49:01';100280;;;14;46
30343;BME280;17145;49.902;8.680;'2023-05-20 07:51:29';100270;;;14;46
30343;BME280;17145;49.902;8.680;'2023-05-20 07:53:56';100270;;;14;47
30343;BME280;17145;49.902;8.680;'2023-05-20 07:56:24';100270;;;14;47
30343;BME280;17145;49.902;8.680;'2023-05-20 07:58:51';100280;;;14;46
30343;BME280;17145;49.902;8.680;'2023-05-20 08:01:18';100280;;;14;46
30343;BME280;17145;49.902;8.680;'2023-05-20 08:03:46';100280;;;15;46
30343;BME280;17145;49.902;8.680;'2023-05-20 08:06:13';100270;;;14;46
30343;BME280;17145;49.902;8.680;'2023-05-20 08:08:40';100270;;;14;46
30343;BME280;17145;49.902;8.680;'2023-05-20 08:11:08';100270;;;14;47
30343;BME280;17145;49.902;8.680;'2023-05-20 08:13:37';100270;;;15;46
30343;BME280;17145;49.902;8.680;'2023-05-20 08:16:04';100270;;;14;46
30343;BME280;17145;49.902;8.680;'2023-05-20 08:18:32';100270;;;14;46
30343;BME280;17145;49.902;8.680;'2023-05-20 08:20:59';100270;;;15;46
30343;BME280;17145;49.902;8.680;'2023-05-20 08:23:27';100270;;;15;46
30343;BME280;17145;49.902;8.680;'2023-05-20 08:25:57';100270;;;15;46
30343;BME280;17145;49.902;8.680;'2023-05-20 08:28:25';100270;;;14;46
30343;BME280;17145;49.902;8.680;'2023-05-20 08:30:53';100270;;;14;46
30343;BME280;17145;49.902;8.680;'2023-05-20 08:33:23';100270;;;15;46
30343;BME280;17145;49.902;8.680;'2023-05-20 08:35:51';100270;;;15;46
30343;BME280;17145;49.902;8.680;'2023-05-20 08:38:18';100270;;;15;46
30343;BME280;17145;49.902;8.680;'2023-05-20 08:40:47';100260;;;15;46
30343;BME280;17145;49.902;8.680;'2023-05-20 08:43:14';100260;;;15;46
30343;BME280;17145;49.902;8.680;'2023-05-20 08:45:42';100250;;;15;46
30343;BME280;17145;49.902;8.680;'2023-05-20 08:48:09';100250;;;15;46
30343;BME280;17145;49.902;8.680;'2023-05-20 08:50:37';100250;;;15;46
30343;BME280;17145;49.902;8.680;'2023-05-20 08:53:04';100250;;;15;46
30343;BME280;17145;49.902;8.680;'2023-05-20 08:55:31';100250;;;15;45
30343;BME280;17145;49.902;8.680;'2023-05-20 08:57:59';100250;;;15;45
30343;BME280;17145;49.902;8.680;'2023-05-20 09:00:26';100250;;;15;45
30343;BME280;17145;49.902;8.680;'2023-05-20 09:02:53';100260;;;15;46
30343;BME280;17145;49.902;8.680;'2023-05-20 09:05:21';100260;;;15;45
30343;BME280;17145;49.902;8.680;'2023-05-20 09:07:48';100260;;;15;45
30343;BME280;17145;49.902;8.680;'2023-05-20 09:10:16';100250;;;15;46
30343;BME280;17145;49.902;8.680;'2023-05-20 09:12:43';100250;;;15;46
30343;BME280;17145;49.902;8.680;'2023-05-20 09:15:11';100250;;;15;45
30343;BME280;17145;49.902;8.680;'2023-05-20 09:17:38';100250;;;15;45
30343;BME280;17145;49.902;8.680;'2023-05-20 09:20:07';100240;;;15;45
30343;BME280;17145;49.902;8.680;'2023-05-20 09:22:34';100240;;;15;46
30343;BME280;17145;49.902;8.680;'2023-05-20 09:25:02';100240;;;15;45
30343;BME280;17145;49.902;8.680;'2023-05-20 09:27:29';100230;;;16;45
30343;BME280;17145;49.902;8.680;'2023-05-20 09:29:56';100220;;;15;45
30343;BME280;17145;49.902;8.680;'2023-05-20 09:32:24';100220;;;16;45
30343;BME280;17145;49.902;8.680;'2023-05-20 09:34:51';100220;;;16;45
30343;BME280;17145;49.902;8.680;'2023-05-20 09:37:19';100220;;;16;45
30343;BME280;17145;49.902;8.680;'2023-05-20 09:39:46';100220;;;16;45
30343;BME280;17145;49.902;8.680;'2023-05-20 09:42:13';100220;;;16;44
30343;BME280;17145;49.902;8.680;'2023-05-20 09:44:41';100220;;;16;44
30343;BME280;17145;49.902;8.680;'2023-05-20 09:47:08';100220;;;16;44
30343;BME280;17145;49.902;8.680;'2023-05-20 09:49:36';100220;;;16;44
30343;BME280;17145;49.902;8.680;'2023-05-20 09:52:04';100220;;;17;44
30343;BME280;17145;49.902;8.680;'2023-05-20 09:54:31';100220;;;17;44
30343;BME280;17145;49.902;8.680;'2023-05-20 09:56:59';100220;;;16;44
30343;BME280;17145;49.902;8.680;'2023-05-20 09:59:26';100210;;;17;44
30343;BME280;17145;49.902;8.680;'2023-05-20 10:01:54';100220;;;17;44
30343;BME280;17145;49.902;8.680;'2023-05-20 10:04:21';100210;;;17;44
30343;BME280;17145;49.902;8.680;'2023-05-20 10:06:48';100210;;;17;44
30343;BME280;17145;49.902;8.680;'2023-05-20 10:09:16';100210;;;17;43
30343;BME280;17145;49.902;8.680;'2023-05-20 10:11:44';100210;;;16;43
30343;BME280;17145;49.902;8.680;'2023-05-20 10:16:58';100190;;;17;43
30343;BME280;17145;49.902;8.680;'2023-05-20 10:19:28';100190;;;17;44
30343;BME280;17145;49.902;8.680;'2023-05-20 10:21:58';100200;;;17;43
30343;BME280;17145;49.902;8.680;'2023-05-20 10:24:26';100190;;;18;43
30343;BME280;17145;49.902;8.680;'2023-05-20 10:27:02';100190;;;17;43
30343;BME280;17145;49.902;8.680;'2023-05-20 10:29:29';100190;;;17;43
30343;BME280;17145;49.902;8.680;'2023-05-20 10:31:57';100190;;;17;43
30343;BME280;17145;49.902;8.680;'2023-05-20 10:34:24';100190;;;18;42
30343;BME280;17145;49.902;8.680;'2023-05-20 10:36:51';100180;;;18;42
30343;BME280;17145;49.902;8.680;'2023-05-20 10:39:19';100180;;;18;42
30343;BME280;17145;49.902;8.680;'2023-05-20 10:41:47';100180;;;18;43
30343;BME280;17145;49.902;8.680;'2023-05-20 10:44:18';100190;;;18;41
30343;BME280;17145;49.902;8.680;'2023-05-20 10:46:46';100180;;;18;43
30343;BME280;17145;49.902;8.680;'2023-05-20 10:49:13';100190;;;19;42
30343;BME280;17145;49.902;8.680;'2023-05-20 10:51:41';100190;;;18;41
30343;BME280;17145;49.902;8.680;'2023-05-20 10:54:09';100190;;;19;40
30343;BME280;17145;49.902;8.680;'2023-05-20 10:56:37';100190;;;19;40
30343;BME280;17145;49.902;8.680;'2023-05-20 10:59:05';100190;;;19;40
30343;BME280;17145;49.902;8.680;'2023-05-20 11:01:39';100190;;;19;40
30343;BME280;17145;49.902;8.680;'2023-05-20 11:04:06';100190;;;19;40
30343;BME280;17145;49.902;8.680;'2023-05-20 11:06:43';100180;;;19;40
30343;BME280;17145;49.902;8.680;'2023-05-20 11:09:10';100180;;;19;40
30343;BME280;17145;49.902;8.680;'2023-05-20 11:11:39';100180;;;19;41
30343;BME280;17145;49.902;8.680;'2023-05-20 11:14:06';100170;;;19;40
30343;BME280;17145;49.902;8.680;'2023-05-20 11:16:34';100170;;;19;40
30343;BME280;17145;49.902;8.680;'2023-05-20 11:19:05';100170;;;19;40
30343;BME280;17145;49.902;8.680;'2023-05-20 11:21:34';100170;;;19;40
30343;BME280;17145;49.902;8.680;'2023-05-20 11:24:01';100170;;;19;40
30343;BME280;17145;49.902;8.680;'2023-05-20 11:26:29';100160;;;19;40
30343;BME280;17145;49.902;8.680;'2023-05-20 11:28:56';100160;;;19;40
30343;BME280;17145;49.902;8.680;'2023-05-20 11:31:25';100170;;;20;40
30343;BME280;17145;49.902;8.680;'2023-05-20 11:33:53';100170;;;19;40
30343;BME280;17145;49.902;8.680;'2023-05-20 11:36:22';100170;;;19;39
30343;BME280;17145;49.902;8.680;'2023-05-20 11:38:52';100170;;;19;40
30343;BME280;17145;49.902;8.680;'2023-05-20 11:41:23';100160;;;20;40
30343;BME280;17145;49.902;8.680;'2023-05-20 11:43:52';100160;;;19;39
30343;BME280;17145;49.902;8.680;'2023-05-20 11:46:19';100160;;;19;40
30343;BME280;17145;49.902;8.680;'2023-05-20 11:48:48';100160;;;19;40
30343;BME280;17145;49.902;8.680;'2023-05-20 11:51:16';100160;;;20;40
30343;BME280;17145;49.902;8.680;'2023-05-20 11:53:43';100160;;;19;40
30343;BME280;17145;49.902;8.680;'2023-05-20 11:56:11';100160;;;20;39
30343;BME280;17145;49.902;8.680;'2023-05-20 11:58:41';100160;;;20;39
30343;BME280;17145;49.902;8.680;'2023-05-20 12:01:08';100160;;;20;39
30343;BME280;17145;49.902;8.680;'2023-05-20 12:03:36';100160;;;20;39
30343;BME280;17145;49.902;8.680;'2023-05-20 12:06:23';100150;;;21;38
30343;BME280;17145;49.902;8.680;'2023-05-20 12:09:09';100150;;;21;36
30343;BME280;17145;49.902;8.680;'2023-05-20 12:11:46';100150;;;21;37
30343;BME280;17145;49.902;8.680;'2023-05-20 12:14:27';100150;;;21;37
30343;BME280;17145;49.902;8.680;'2023-05-20 12:17:04';100140;;;21;37
30343;BME280;17145;49.902;8.680;'2023-05-20 12:19:33';100140;;;21;36
30343;BME280;17145;49.902;8.680;'2023-05-20 12:22:01';100130;;;21;36
30343;BME280;17145;49.902;8.680;'2023-05-20 12:24:30';100130;;;21;36
30343;BME280;17145;49.902;8.680;'2023-05-20 12:27:00';100130;;;21;36
30343;BME280;17145;49.902;8.680;'2023-05-20 12:29:28';100130;;;21;35
30343;BME280;17145;49.902;8.680;'2023-05-20 12:31:55';100130;;;21;35
30343;BME280;17145;49.902;8.680;'2023-05-20 12:34:23';100120;;;21;36
30343;BME280;17145;49.902;8.680;'2023-05-20 12:36:57';100120;;;22;35
30343;BME280;17145;49.902;8.680;'2023-05-20 12:39:26';100120;;;22;35
30343;BME280;17145;49.902;8.680;'2023-05-20 12:42:05';100120;;;22;34
30343;BME280;17145;49.902;8.680;'2023-05-20 12:44:41';100120;;;21;35
30343;BME280;17145;49.902;8.680;'2023-05-20 12:47:09';100110;;;22;36
30343;BME280;17145;49.902;8.680;'2023-05-20 12:49:43';100100;;;21;35
30343;BME280;17145;49.902;8.680;'2023-05-20 12:52:10';100100;;;21;36
30343;BME280;17145;49.902;8.680;'2023-05-20 12:54:43';100100;;;21;36
30343;BME280;17145;49.902;8.680;'2023-05-20 12:57:10';100110;;;22;36
30343;BME280;17145;49.902;8.680;'2023-05-20 12:59:38';100100;;;22;36
30343;BME280;17145;49.902;8.680;'2023-05-20 13:02:07';100110;;;22;35
30343;BME280;17145;49.902;8.680;'2023-05-20 13:04:34';100110;;;22;34
30343;BME280;17145;49.902;8.680;'2023-05-20 13:07:02';100110;;;22;35
30343;BME280;17145;49.902;8.680;'2023-05-20 13:09:29';100100;;;22;35
30343;BME280;17145;49.902;8.680;'2023-05-20 13:11:57';100100;;;22;35
30343;BME280;17145;49.902;8.680;'2023-05-20 13:14:27';100100;;;23;34
30343;BME280;17145;49.902;8.680;'2023-05-20 13:16:56';100090;;;23;33
30343;BME280;17145;49.902;8.680;'2023-05-20 13:19:23';100080;;;23;33
30343;BME280;17145;49.902;8.680;'2023-05-20 13:21:51';100080;;;23;32
30343;BME280;17145;49.902;8.680;'2023-05-20 13:24:24';100080;;;22;33
30343;BME280;17145;49.902;8.680;'2023-05-20 13:26:51';100070;;;22;33
30343;BME280;17145;49.902;8.680;'2023-05-20 13:29:19';100080;;;22;33
30343;BME280;17145;49.902;8.680;'2023-05-20 13:31:48';100080;;;23;32
30343;BME280;17145;49.902;8.680;'2023-05-20 13:34:18';100080;;;23;33
30343;BME280;17145;49.902;8.680;'2023-05-20 13:36:45';100070;;;23;32
30343;BME280;17145;49.902;8.680;'2023-05-20 13:39:14';100080;;;23;33
30343;BME280;17145;49.902;8.680;'2023-05-20 13:41:41';100070;;;23;32
30343;BME280;17145;49.902;8.680;'2023-05-20 13:44:10';100070;;;23;32
30343;BME280;17145;49.902;8.680;'2023-05-20 13:46:42';100070;;;23;32
30343;BME280;17145;49.902;8.680;'2023-05-20 13:49:11';100060;;;23;32
30343;BME280;17145;49.902;8.680;'2023-05-20 13:51:39';100060;;;23;32
30343;BME280;17145;49.902;8.680;'2023-05-20 13:54:07';100060;;;23;31
30343;BME280;17145;49.902;8.680;'2023-05-20 13:56:36';100060;;;23;32
30343;BME280;17145;49.902;8.680;'2023-05-20 13:59:05';100060;;;24;32
30343;BME280;17145;49.902;8.680;'2023-05-20 14:01:34';100050;;;24;31
30343;BME280;17145;49.902;8.680;'2023-05-20 14:04:03';100050;;;24;31
30343;BME280;17145;49.902;8.680;'2023-05-20 14:06:31';100040;;;24;30
30343;BME280;17145;49.902;8.680;'2023-05-20 14:09:01';100040;;;24;29
30343;BME280;17145;49.902;8.680;'2023-05-20 14:11:28';100050;;;24;30
30343;BME280;17145;49.902;8.680;'2023-05-20 14:13:56';100040;;;24;30
30343;BME280;17145;49.902;8.680;'2023-05-20 14:16:23';100050;;;24;30
30343;BME280;17145;49.902;8.680;'2023-05-20 14:18:50';100050;;;24;31
30343;BME280;17145;49.902;8.680;'2023-05-20 14:21:18';100040;;;24;30
30343;BME280;17145;49.902;8.680;'2023-05-20 14:23:45';100040;;;24;31
30343;BME280;17145;49.902;8.680;'2023-05-20 14:26:13';100040;;;23;31
30343;BME280;17145;49.902;8.680;'2023-05-20 14:28:40';100040;;;24;32
30343;BME280;17145;49.902;8.680;'2023-05-20 14:31:08';100040;;;24;32
30343;BME280;17145;49.902;8.680;'2023-05-20 14:33:35';100030;;;24;33
30343;BME280;17145;49.902;8.680;'2023-05-20 14:36:03';100020;;;24;31
30343;BME280;17145;49.902;8.680;'2023-05-20 14:38:31';100020;;;25;30
30343;BME280;17145;49.902;8.680;'2023-05-20 14:40:58';100030;;;25;30
30343;BME280;17145;49.902;8.680;'2023-05-20 14:43:26';100030;;;25;30
30343;BME280;17145;49.902;8.680;'2023-05-20 14:45:54';100030;;;24;30
30343;BME280;17145;49.902;8.680;'2023-05-20 14:48:21';100020;;;24;30
30343;BME280;17145;49.902;8.680;'2023-05-20 14:50:49';100030;;;24;31
30343;BME280;17145;49.902;8.680;'2023-05-20 14:53:16';100020;;;24;31
30343;BME280;17145;49.902;8.680;'2023-05-20 14:55:43';100020;;;24;31
30343;BME280;17145;49.902;8.680;'2023-05-20 14:58:11';100020;;;24;31
30343;BME280;17145;49.902;8.680;'2023-05-20 15:00:38';100020;;;25;30
30343;BME280;17145;49.902;8.680;'2023-05-20 15:03:06';100020;;;25;31
30343;BME280;17145;49.902;8.680;'2023-05-20 15:05:33';100020;;;25;30
30343;BME280;17145;49.902;8.680;'2023-05-20 15:08:01';100020;;;25;30
30343;BME280;17145;49.902;8.680;'2023-05-20 15:10:28';100020;;;25;30
30343;BME280;17145;49.902;8.680;'2023-05-20 15:12:56';100020;;;25;29
30343;BME280;17145;49.902;8.680;'2023-05-20 15:15:23';100020;;;25;30
30343;BME280;17145;49.902;8.680;'2023-05-20 15:17:50';100020;;;24;30
30343;BME280;17145;49.902;8.680;'2023-05-20 15:20:18';100010;;;25;30
30343;BME280;17145;49.902;8.680;'2023-05-20 15:22:45';100010;;;25;31
30343;BME280;17145;49.902;8.680;'2023-05-20 15:25:13';100010;;;25;31
30343;BME280;17145;49.902;8.680;'2023-05-20 15:27:41';100010;;;25;30
30343;BME280;17145;49.902;8.680;'2023-05-20 15:30:09';100010;;;25;31
30343;BME280;17145;49.902;8.680;'2023-05-20 15:32:36';100010;;;25;31
30343;BME280;17145;49.902;8.680;'2023-05-20 15:35:04';100000;;;25;30
30343;BME280;17145;49.902;8.680;'2023-05-20 15:37:32';100000;;;25;30
30343;BME280;17145;49.902;8.680;'2023-05-20 15:39:59';100000;;;26;30
30343;BME280;17145;49.902;8.680;'2023-05-20 15:42:26';100000;;;26;29
30343;BME280;17145;49.902;8.680;'2023-05-20 15:44:54';100000;;;26;29
30343;BME280;17145;49.902;8.680;'2023-05-20 15:47:21';99990;;;26;28
30343;BME280;17145;49.902;8.680;'2023-05-20 15:49:49';99990;;;26;29
30343;BME280;17145;49.902;8.680;'2023-05-20 15:52:16';99990;;;25;29
30343;BME280;17145;49.902;8.680;'2023-05-20 15:54:44';99970;;;26;29
30343;BME280;17145;49.902;8.680;'2023-05-20 15:57:11';99970;;;25;29
30343;BME280;17145;49.902;8.680;'2023-05-20 15:59:39';99980;;;25;30
30343;BME280;17145;49.902;8.680;'2023-05-20 16:02:07';99970;;;25;31
30343;BME280;17145;49.902;8.680;'2023-05-20 16:04:34';99960;;;25;29
30343;BME280;17145;49.902;8.680;'2023-05-20 16:07:01';99960;;;25;29
30343;BME280;17145;49.902;8.680;'2023-05-20 16:09:29';99960;;;25;29
30343;BME280;17145;49.902;8.680;'2023-05-20 16:11:56';99960;;;25;29
30343;BME280;17145;49.902;8.680;'2023-05-20 16:14:24';99960;;;25;30
30343;BME280;17145;49.902;8.680;'2023-05-20 16:16:51';99960;;;25;30
30343;BME280;17145;49.902;8.680;'2023-05-20 16:19:19';99960;;;25;30
30343;BME280;17145;49.902;8.680;'2023-05-20 16:21:46';99950;;;25;29
30343;BME280;17145;49.902;8.680;'2023-05-20 16:24:14';99960;;;25;30
30343;BME280;17145;49.902;8.680;'2023-05-20 16:26:41';99950;;;25;30
30343;BME280;17145;49.902;8.680;'2023-05-20 16:29:08';99950;;;26;29
30343;BME280;17145;49.902;8.680;'2023-05-20 16:31:36';99950;;;26;30
30343;BME280;17145;49.902;8.680;'2023-05-20 16:34:03';99940;;;26;30
30343;BME280;17145;49.902;8.680;'2023-05-20 16:36:31';99940;;;26;28
30343;BME280;17145;49.902;8.680;'2023-05-20 16:38:58';99930;;;26;29
30343;BME280;17145;49.902;8.680;'2023-05-20 16:41:26';99940;;;25;28
30343;BME280;17145;49.902;8.680;'2023-05-20 16:43:53';99940;;;26;29
30343;BME280;17145;49.902;8.680;'2023-05-20 16:46:20';99940;;;25;29
30343;BME280;17145;49.902;8.680;'2023-05-20 16:48:48';99930;;;25;30
30343;BME280;17145;49.902;8.680;'2023-05-20 16:51:15';99940;;;26;29
30343;BME280;17145;49.902;8.680;'2023-05-20 16:53:43';99930;;;25;29